Bandon, Indiana
Current Conditions -  °F | °C
As of 2:55 AM on Saturday 25 Oct 2014 (Local Time) from KHNB Reporting Station
Few Clouds Few Clouds  
Wind Chill: 50°   Ceiling: Unl
Heat Index: 50°   Visibility: 6mi
Dew Point: 46°   Wind: 6mph
Humidity: 87%   Direction: 220°SW
Pressure: 30.04"   Gusts: NA
Location:  38.1703°N, 86.5482°W
Report Text: KHNB 250755Z AUTO 22005KT 6SM FEW047 10/08 A3004 RMK AO1
Loading
Personal Weather Stations






























Interactive Weather Map
Tropical Storm Tracking
New forecast layout! Learn more

10-Day Weather Forecast

Advertisements
Track Severe Weather on mobile